Time;durP1;ratioP1;P1;durP2;ratioP2;P2;SDS_P1;SDS_P2;PMS_P1;PMS_P2;Temp;Humidity;BMP_temperature;BMP_pressure;BME280_temperature;BME280_humidity;BME280_pressure;Samples;Min_cycle;Max_cycle;Signal;HPM_P1;HPM_P2
2023/08/07 00:01:44;;;;;;;8.10;3.20;;;;;;;13.40;100.00;99766.28;4999040;28;20446;-80
2023/08/07 00:04:14;;;;;;;10.73;3.47;;;;;;;13.38;100.00;99773.19;4998619;28;20421;-80
2023/08/07 00:06:47;;;;;;;11.20;3.22;;;;;;;13.34;100.00;99766.72;4998376;28;21168;-81
2023/08/07 00:09:15;;;;;;;7.18;3.40;;;;;;;13.38;100.00;99762.25;4998981;28;20425;-80
2023/08/07 00:11:48;;;;;;;9.07;3.30;;;;;;;13.40;100.00;99765.47;5024854;28;20438;-80
2023/08/07 00:14:17;;;;;;;8.23;3.50;;;;;;;13.38;100.00;99762.25;5012355;28;20463;-80
2023/08/07 00:16:50;;;;;;;6.97;3.63;;;;;;;13.44;100.00;99758.25;5025333;28;20434;-82
2023/08/07 00:19:24;;;;;;;8.83;3.50;;;;;;;13.35;100.00;99757.41;5005147;28;20431;-80
2023/08/07 00:21:57;;;;;;;8.68;3.33;;;;;;;13.29;100.00;99764.97;5002839;28;20426;-80
2023/08/07 00:24:31;;;;;;;7.80;3.20;;;;;;;13.33;100.00;99755.00;4994660;28;20450;-82
2023/08/07 00:27:06;;;;;;;8.70;3.45;;;;;;;13.25;100.00;99764.78;5000405;28;20441;-82
2023/08/07 00:29:34;;;;;;;6.75;3.03;;;;;;;13.25;100.00;99753.06;4999721;28;20438;-78
2023/08/07 00:32:08;;;;;;;7.90;3.50;;;;;;;13.39;100.00;99759.19;4996717;28;20520;-78
2023/08/07 00:34:43;;;;;;;7.65;3.00;;;;;;;13.33;100.00;99759.66;4997650;28;20441;-81
2023/08/07 00:37:13;;;;;;;8.02;3.08;;;;;;;13.30;100.00;99750.19;4999746;28;20426;-81
2023/08/07 00:39:46;;;;;;;7.70;2.70;;;;;;;13.24;100.00;99760.47;5000972;28;21047;-80
2023/08/07 00:42:19;;;;;;;6.87;3.00;;;;;;;13.20;100.00;99754.03;4997304;28;20432;-81
2023/08/07 00:44:47;;;;;;;8.40;2.90;;;;;;;13.24;100.00;99765.09;5012384;28;20439;-81
2023/08/07 00:47:15;;;;;;;8.25;2.78;;;;;;;13.31;100.00;99759.19;5002735;28;20827;-81
2023/08/07 00:49:50;;;;;;;7.65;2.80;;;;;;;13.22;100.00;99749.03;4993974;28;20445;-80
2023/08/07 00:52:23;;;;;;;6.22;2.80;;;;;;;13.14;100.00;99759.97;5009528;28;20456;-79
2023/08/07 00:54:57;;;;;;;5.78;2.50;;;;;;;13.10;100.00;99754.34;4996424;28;20453;-81
2023/08/07 00:57:26;;;;;;;5.88;2.85;;;;;;;13.07;100.00;99753.03;5003151;28;20746;-82
2023/08/07 01:00:00;;;;;;;5.25;2.45;;;;;;;13.13;100.00;99761.09;5008926;28;20428;-80
2023/08/07 01:02:33;;;;;;;5.80;2.70;;;;;;;13.07;100.00;99760.44;5004928;28;20921;-80
2023/08/07 01:05:08;;;;;;;8.13;2.70;;;;;;;12.99;100.00;99756.56;5003590;28;20433;-80
2023/08/07 01:07:41;;;;;;;5.17;2.57;;;;;;;13.06;100.00;99764.28;5002148;28;20439;-81
2023/08/07 01:10:15;;;;;;;6.25;3.00;;;;;;;13.06;100.00;99756.91;5002047;28;20439;-81
2023/08/07 01:12:55;;;;;;;8.38;2.67;;;;;;;12.96;100.00;99757.19;4998933;28;20434;-82
2023/08/07 01:15:33;;;;;;;12.65;2.97;;;;;;;12.98;100.00;99754.16;5016567;28;20483;-81
2023/08/07 01:18:08;;;;;;;8.35;2.80;;;;;;;12.95;100.00;99746.59;5002620;28;21032;-83
2023/08/07 01:20:43;;;;;;;5.93;2.50;;;;;;;12.92;100.00;99737.91;5000763;28;20426;-81
2023/08/07 01:23:17;;;;;;;5.22;2.45;;;;;;;12.97;100.00;99753.34;5002127;28;20921;-81
2023/08/07 01:25:51;;;;;;;6.15;2.30;;;;;;;12.96;100.00;99740.81;4999267;28;20795;-81
2023/08/07 01:28:27;;;;;;;8.75;2.65;;;;;;;12.97;100.00;99745.16;4999430;28;20428;-81
2023/08/07 01:31:06;;;;;;;7.28;2.20;;;;;;;12.89;100.00;99745.94;4999389;28;20430;-80
2023/08/07 01:33:47;;;;;;;4.90;2.22;;;;;;;12.91;100.00;99746.41;5021670;28;21003;-81
2023/08/07 01:36:22;;;;;;;6.50;2.35;;;;;;;12.84;100.00;99740.63;5003697;28;20471;-81
2023/08/07 01:38:59;;;;;;;7.85;2.20;;;;;;;12.89;100.00;99730.34;5000616;28;20473;-81
2023/08/07 01:41:32;;;;;;;5.25;2.30;;;;;;;12.92;100.00;99729.72;5001041;28;20827;-80
2023/08/07 01:44:01;;;;;;;6.00;2.40;;;;;;;12.89;100.00;99726.84;4998595;28;20425;-81
2023/08/07 01:46:30;;;;;;;5.35;2.33;;;;;;;12.80;100.00;99721.38;4998972;28;20440;-80
2023/08/07 01:49:03;;;;;;;5.18;2.30;;;;;;;12.81;100.00;99724.91;5014394;28;20440;-80
2023/08/07 01:51:37;;;;;;;7.95;2.10;;;;;;;12.81;100.00;99722.94;4997238;28;20420;-80
2023/08/07 01:54:06;;;;;;;8.20;2.20;;;;;;;12.85;100.00;99725.88;5020586;28;20431;-81
2023/08/07 01:56:39;;;;;;;5.80;2.30;;;;;;;12.74;100.00;99717.97;4999366;28;20418;-79
2023/08/07 01:59:12;;;;;;;5.72;2.30;;;;;;;12.74;100.00;99720.69;5002682;28;20430;-81
2023/08/07 02:01:45;;;;;;;7.50;2.40;;;;;;;12.85;100.00;99710.28;5017108;28;20422;-81
2023/08/07 02:04:14;;;;;;;5.90;2.20;;;;;;;12.78;100.00;99715.41;5001317;28;20941;-81
2023/08/07 02:06:42;;;;;;;5.50;2.00;;;;;;;12.71;100.00;99718.59;4996053;28;20428;-80
2023/08/07 02:09:16;;;;;;;5.47;2.30;;;;;;;12.73;100.00;99713.63;4996931;28;20428;-81
2023/08/07 02:11:50;;;;;;;5.85;2.10;;;;;;;12.74;100.00;99708.97;4996270;28;20758;-81
2023/08/07 02:14:23;;;;;;;5.97;2.50;;;;;;;12.73;100.00;99710.09;5009883;28;20450;-81
2023/08/07 02:16:56;;;;;;;3.95;2.13;;;;;;;12.71;100.00;99712.34;4994316;28;20428;-81
2023/08/07 02:19:30;;;;;;;5.40;2.10;;;;;;;12.78;100.00;99709.94;4999618;28;20435;-81
2023/08/07 02:22:04;;;;;;;4.57;2.30;;;;;;;12.74;100.00;99714.44;4997204;28;20770;-80
2023/08/07 02:24:38;;;;;;;6.03;2.22;;;;;;;12.72;100.00;99711.22;5003045;28;20437;-80
2023/08/07 02:27:07;;;;;;;4.63;2.20;;;;;;;12.80;100.00;99710.44;4995690;28;20450;-80
2023/08/07 02:29:41;;;;;;;5.72;2.25;;;;;;;12.75;100.00;99716.84;4995174;28;20441;-82
2023/08/07 02:32:14;;;;;;;5.53;2.23;;;;;;;12.83;100.00;99714.44;5002266;28;20540;-81
2023/08/07 02:34:42;;;;;;;4.43;2.00;;;;;;;12.79;100.00;99730.69;4999096;28;20883;-81
2023/08/07 02:37:15;;;;;;;5.68;1.92;;;;;;;12.81;100.00;99719.44;4996419;28;20807;-81
2023/08/07 02:39:50;;;;;;;5.05;1.98;;;;;;;12.82;100.00;99715.59;4993577;28;20765;-80
2023/08/07 02:42:23;;;;;;;4.20;2.20;;;;;;;12.83;100.00;99723.47;4998505;28;20865;-81
2023/08/07 02:44:56;;;;;;;4.68;2.10;;;;;;;12.70;100.00;99719.72;4998875;28;20436;-82
2023/08/07 02:47:25;;;;;;;3.83;2.00;;;;;;;12.69;100.00;99726.31;4998639;28;20420;-82
2023/08/07 02:49:59;;;;;;;5.20;2.30;;;;;;;12.67;100.00;99722.28;5014655;28;20434;-80
2023/08/07 02:52:27;;;;;;;4.13;2.10;;;;;;;12.68;100.00;99721.97;4998477;28;20537;-81
2023/08/07 02:54:58;;;;;;;4.90;2.20;;;;;;;12.69;100.00;99712.66;4997808;28;20441;-83
2023/08/07 02:57:31;;;;;;;5.90;2.10;;;;;;;12.67;100.00;99716.84;5029232;28;20434;-81
2023/08/07 03:00:06;;;;;;;4.78;2.20;;;;;;;12.66;100.00;99721.47;5002646;28;20487;-81
2023/08/07 03:02:39;;;;;;;4.45;2.15;;;;;;;12.67;100.00;99723.09;4999878;28;20422;-80
2023/08/07 03:05:12;;;;;;;7.18;2.28;;;;;;;12.68;100.00;99711.06;5001220;28;20503;-80
2023/08/07 03:07:45;;;;;;;3.85;2.00;;;;;;;12.66;100.00;99715.22;4998325;28;20435;-80
2023/08/07 03:10:20;;;;;;;4.72;2.03;;;;;;;12.61;100.00;99718.09;4999713;28;20927;-82
2023/08/07 03:12:53;;;;;;;4.70;2.10;;;;;;;12.65;100.00;99716.34;4999020;28;20432;-80
2023/08/07 03:15:21;;;;;;;4.22;2.10;;;;;;;12.61;100.00;99716.19;5001844;28;20427;-81
2023/08/07 03:17:55;;;;;;;4.05;2.20;;;;;;;12.59;100.00;99721.13;4993631;28;20445;-81
2023/08/07 03:20:28;;;;;;;3.50;2.03;;;;;;;12.63;100.00;99711.19;5001058;28;20823;-81
2023/08/07 03:23:01;;;;;;;6.50;2.20;;;;;;;12.62;100.00;99716.97;4997472;28;20428;-80
2023/08/07 03:25:35;;;;;;;4.47;2.00;;;;;;;12.66;100.00;99721.47;4997773;28;20432;-81
2023/08/07 03:28:09;;;;;;;4.90;2.00;;;;;;;12.62;100.00;99711.50;4996416;28;20444;-82
2023/08/07 03:30:37;;;;;;;6.97;2.30;;;;;;;12.69;100.00;99718.13;4999325;28;20941;-79
2023/08/07 03:33:11;;;;;;;6.38;2.17;;;;;;;12.66;100.00;99718.75;5005199;28;20789;-80
2023/08/07 03:35:45;;;;;;;5.75;1.83;;;;;;;12.64;100.00;99717.47;5002893;28;20418;-80
2023/08/07 03:38:19;;;;;;;6.88;2.15;;;;;;;12.64;100.00;99718.28;4993935;28;20436;-79
2023/08/07 03:40:49;;;;;;;4.50;2.30;;;;;;;12.70;100.00;99724.38;5000502;28;20444;-80
2023/08/07 03:43:22;;;;;;;5.77;2.23;;;;;;;12.74;100.00;99723.41;5014248;28;20523;-80
2023/08/07 03:45:56;;;;;;;5.40;2.05;;;;;;;12.69;100.00;99722.75;5015769;28;20449;-83
2023/08/07 03:48:31;;;;;;;5.55;2.10;;;;;;;12.72;100.00;99722.94;4998966;28;20445;-81
2023/08/07 03:51:04;;;;;;;4.68;2.15;;;;;;;12.68;100.00;99729.38;5001786;28;20808;-81
2023/08/07 03:53:42;;;;;;;5.03;2.13;;;;;;;12.72;100.00;99719.41;5002094;28;20441;-80
2023/08/07 03:56:17;;;;;;;5.03;2.22;;;;;;;12.68;100.00;99715.72;5018573;28;20961;-81
2023/08/07 03:58:50;;;;;;;4.53;2.15;;;;;;;12.62;100.00;99711.50;5002036;28;20791;-81
2023/08/07 04:01:25;;;;;;;6.20;2.35;;;;;;;12.67;100.00;99712.16;5004805;28;20434;-80
2023/08/07 04:03:58;;;;;;;7.40;2.17;;;;;;;12.60;100.00;99709.09;5002679;28;21098;-81
2023/08/07 04:06:31;;;;;;;5.90;2.17;;;;;;;12.65;100.00;99710.88;5033849;28;20433;-80
2023/08/07 04:09:05;;;;;;;7.15;2.10;;;;;;;12.62;100.00;99720.50;5000707;28;20432;-82
2023/08/07 04:11:41;;;;;;;4.75;2.08;;;;;;;12.59;100.00;99716.50;5014683;28;20429;-81
2023/08/07 04:14:14;;;;;;;7.90;2.30;;;;;;;12.67;100.00;99708.66;5002314;28;20445;-79
2023/08/07 04:16:47;;;;;;;6.30;2.20;;;;;;;12.66;100.00;99715.22;5012113;28;21212;-80
2023/08/07 04:19:20;;;;;;;6.40;2.10;;;;;;;12.66;100.00;99715.22;4995297;28;20908;-81
2023/08/07 04:21:53;;;;;;;6.70;2.28;;;;;;;12.65;100.00;99717.16;5003632;28;20465;-81
2023/08/07 04:24:27;;;;;;;5.70;1.92;;;;;;;12.66;100.00;99707.03;4999165;28;20442;-81
2023/08/07 04:27:03;;;;;;;5.15;2.10;;;;;;;12.69;100.00;99709.13;5001162;28;20437;-80
2023/08/07 04:29:36;;;;;;;7.72;2.10;;;;;;;12.68;100.00;99715.72;4996215;28;20805;-82
2023/08/07 04:32:09;;;;;;;8.70;2.17;;;;;;;12.74;100.00;99719.91;4996010;28;21374;-81
2023/08/07 04:34:42;;;;;;;6.97;2.27;;;;;;;12.70;100.00;99714.25;4995459;28;20427;-82
2023/08/07 04:37:15;;;;;;;5.20;2.10;;;;;;;12.74;100.00;99715.22;5001192;28;20957;-82
2023/08/07 04:39:48;;;;;;;7.82;2.30;;;;;;;12.81;100.00;99724.91;4994828;28;20430;-82
2023/08/07 04:42:23;;;;;;;5.50;2.10;;;;;;;12.80;100.00;99720.53;4995468;28;20440;-81
2023/08/07 04:44:56;;;;;;;4.70;2.20;;;;;;;12.81;100.00;99719.44;4999061;28;20445;-81
2023/08/07 04:47:29;;;;;;;8.25;2.58;;;;;;;12.81;100.00;99714.75;5013050;28;20447;-81
2023/08/07 04:50:02;;;;;;;6.40;2.40;;;;;;;12.84;100.00;99714.16;4996202;28;20443;-81
2023/08/07 04:52:36;;;;;;;7.25;2.20;;;;;;;12.91;100.00;99716.38;4994679;28;20438;-81
2023/08/07 04:55:05;;;;;;;9.10;2.22;;;;;;;12.92;100.00;99724.25;4992780;28;20429;-82
2023/08/07 04:57:34;;;;;;;6.63;2.40;;;;;;;12.92;100.00;99718.00;5013403;28;20432;-81
2023/08/07 05:00:09;;;;;;;6.65;2.70;;;;;;;12.98;100.00;99724.09;5000053;28;20441;-81
2023/08/07 05:02:42;;;;;;;7.20;2.47;;;;;;;13.01;100.00;99724.28;4995947;28;20441;-82
2023/08/07 05:05:16;;;;;;;5.28;2.30;;;;;;;13.05;100.00;99725.25;4996100;28;20465;-81
2023/08/07 05:07:44;;;;;;;5.82;2.70;;;;;;;13.20;100.00;99710.31;4996610;28;20440;-80
2023/08/07 05:10:17;;;;;;;8.07;2.50;;;;;;;13.21;100.00;99713.84;4992976;28;20435;-82
2023/08/07 05:12:55;;;;;;;8.30;2.42;;;;;;;13.25;100.00;99715.59;4996845;28;20426;-83
2023/08/07 05:15:23;;;;;;;5.78;2.65;;;;;;;13.32;100.00;99708.88;4995634;28;20447;-80
2023/08/07 05:17:56;;;;;;;10.40;2.90;;;;;;;13.32;100.00;99709.66;5000068;28;20420;-82
2023/08/07 05:20:24;;;;;;;7.68;2.60;;;;;;;13.40;100.00;99711.63;4993343;28;20798;-82
2023/08/07 05:22:53;;;;;;;7.20;2.45;;;;;;;13.48;100.00;99710.03;5001168;28;20819;-81
2023/08/07 05:25:26;;;;;;;10.50;2.90;;;;;;;13.54;100.00;99716.91;4996158;28;20441;-81
2023/08/07 05:28:01;;;;;;;7.07;2.40;;;;;;;13.52;100.00;99712.88;4998978;28;20437;-81
2023/08/07 05:30:34;;;;;;;8.18;2.50;;;;;;;13.53;100.00;99709.84;4995118;28;20445;-82
2023/08/07 05:33:07;;;;;;;6.20;2.42;;;;;;;13.59;100.00;99715.97;4993196;28;20436;-81
2023/08/07 05:35:40;;;;;;;7.90;2.50;;;;;;;13.68;100.00;99710.47;4993585;28;20431;-80
2023/08/07 05:38:13;;;;;;;7.88;2.53;;;;;;;13.71;100.00;99709.81;4992738;28;20448;-80
2023/08/07 05:40:47;;;;;;;12.10;2.97;;;;;;;13.72;100.00;99708.69;4993928;28;20432;-82
2023/08/07 05:43:21;;;;;;;6.15;2.35;;;;;;;13.89;100.00;99716.88;4998993;28;20436;-80
2023/08/07 05:45:54;;;;;;;8.70;3.00;;;;;;;13.80;100.00;99718.03;4999292;28;20435;-82
2023/08/07 05:48:22;;;;;;;5.70;2.33;;;;;;;13.86;100.00;99717.50;4997647;28;20430;-81
2023/08/07 05:50:56;;;;;;;7.70;2.50;;;;;;;14.02;100.00;99719.72;4997594;28;20436;-80
2023/08/07 05:53:29;;;;;;;5.80;2.38;;;;;;;13.94;100.00;99715.88;4993110;28;20433;-81
2023/08/07 05:55:57;;;;;;;8.40;2.45;;;;;;;13.99;100.00;99712.16;4991528;28;20441;-82
2023/08/07 05:58:32;;;;;;;7.45;2.70;;;;;;;14.00;100.00;99722.75;4994016;28;20430;-80
2023/08/07 06:01:05;;;;;;;8.80;2.28;;;;;;;13.99;100.00;99723.09;4991083;28;20434;-80
2023/08/07 06:03:38;;;;;;;12.15;2.70;;;;;;;14.04;100.00;99715.50;4990502;28;20422;-81
2023/08/07 06:06:11;;;;;;;10.38;2.58;;;;;;;14.16;100.00;99725.00;4993830;28;20419;-81
2023/08/07 06:08:44;;;;;;;6.57;2.40;;;;;;;14.22;100.00;99734.63;4990486;28;20431;-81
2023/08/07 06:11:17;;;;;;;7.55;2.53;;;;;;;14.24;100.00;99729.63;4994150;28;20428;-80
2023/08/07 06:13:52;;;;;;;7.28;2.40;;;;;;;14.27;100.00;99729.75;4998470;28;20444;-82
2023/08/07 06:16:25;;;;;;;6.75;2.28;;;;;;;14.18;100.00;99728.97;5009857;28;20439;-83
2023/08/07 06:18:59;;;;;;;9.50;2.42;;;;;;;14.37;100.00;99727.81;4992026;28;20441;-80
2023/08/07 06:21:32;;;;;;;7.47;2.25;;;;;;;14.29;100.00;99735.72;4993289;28;20426;-81
2023/08/07 06:24:06;;;;;;;9.80;2.20;;;;;;;14.35;100.00;99730.06;4992558;28;20940;-81
2023/08/07 06:26:39;;;;;;;10.48;2.58;;;;;;;14.36;100.00;99743.44;4991106;28;20447;-80
2023/08/07 06:29:14;;;;;;;12.35;2.50;;;;;;;14.56;100.00;99732.88;4993011;28;20903;-81
2023/08/07 06:31:47;;;;;;;7.45;2.30;;;;;;;14.61;100.00;99743.63;4997717;28;20441;-83
2023/08/07 06:34:15;;;;;;;9.40;2.30;;;;;;;14.58;100.00;99741.53;4997912;28;20428;-82
2023/08/07 06:36:48;;;;;;;9.10;2.40;;;;;;;14.42;100.00;99738.56;4992828;28;20768;-82
2023/08/07 06:39:21;;;;;;;11.43;2.60;;;;;;;14.59;100.00;99737.69;4996957;28;20422;-80
2023/08/07 06:41:55;;;;;;;9.68;2.30;;;;;;;14.53;100.00;99739.81;4991829;28;20441;-81
2023/08/07 06:44:34;;;;;;;7.85;2.47;;;;;;;14.58;100.00;99741.53;4989673;28;20433;-80
2023/08/07 06:47:08;;;;;;;10.82;2.58;;;;;;;14.51;100.00;99736.59;4996131;28;20445;-79
2023/08/07 06:49:41;;;;;;;11.70;3.10;;;;;;;14.44;100.00;99737.13;4990988;28;20435;-80
2023/08/07 06:52:09;;;;;;;11.07;3.67;;;;;;;14.67;100.00;99736.06;4990735;28;20436;-81
2023/08/07 06:54:42;;;;;;;9.03;2.60;;;;;;;14.52;100.00;99735.47;4995698;28;20451;-79
2023/08/07 06:57:16;;;;;;;8.68;2.40;;;;;;;14.70;100.00;99738.16;4990022;28;22348;-80
2023/08/07 06:59:50;;;;;;;8.50;2.53;;;;;;;14.75;100.00;99741.50;4989186;28;20442;-79
2023/08/07 07:02:18;;;;;;;11.73;2.70;;;;;;;14.70;100.00;99743.63;4990140;28;20904;-80
2023/08/07 07:04:47;;;;;;;10.90;2.67;;;;;;;14.73;100.00;99757.44;5010134;28;20435;-82
2023/08/07 07:07:15;;;;;;;10.88;2.78;;;;;;;14.65;100.00;99741.84;4989568;28;20443;-80
2023/08/07 07:09:43;;;;;;;12.53;2.77;;;;;;;14.66;100.00;99735.25;5005829;28;20429;-80
2023/08/07 07:12:17;;;;;;;13.52;2.78;;;;;;;14.75;100.00;99746.97;4990191;28;20442;-81
2023/08/07 07:14:45;;;;;;;11.65;2.60;;;;;;;14.68;100.00;99745.88;4990665;28;20423;-82
2023/08/07 07:17:19;;;;;;;12.73;2.70;;;;;;;14.66;100.00;99743.47;4992934;28;20428;-81
2023/08/07 07:19:53;;;;;;;13.48;4.78;;;;;;;14.74;100.00;99750.03;4990815;28;20430;-82
2023/08/07 07:22:21;;;;;;;11.63;3.08;;;;;;;14.65;100.00;99750.06;4991640;28;20528;-83
2023/08/07 07:24:54;;;;;;;16.35;5.57;;;;;;;14.77;100.00;99752.13;4994632;28;20438;-80
2023/08/07 07:27:28;;;;;;;12.73;2.93;;;;;;;14.83;100.00;99756.28;4995089;28;20438;-80
2023/08/07 07:29:56;;;;;;;12.15;3.03;;;;;;;14.83;100.00;99753.53;4993473;28;20439;-82
2023/08/07 07:32:26;;;;;;;9.95;2.63;;;;;;;14.89;100.00;99748.69;4995038;28;20428;-82
2023/08/07 07:34:59;;;;;;;13.15;2.90;;;;;;;14.89;100.00;99754.94;4997161;28;20428;-81
2023/08/07 07:37:27;;;;;;;11.27;2.90;;;;;;;14.93;100.00;99758.63;4999120;28;20434;-80
2023/08/07 07:39:55;;;;;;;12.63;3.20;;;;;;;15.06;100.00;99754.03;4980643;28;20432;-79
2023/08/07 07:42:24;;;;;;;9.95;2.90;;;;;;;15.14;100.00;99741.41;4988711;28;20431;-80
2023/08/07 07:44:57;;;;;;;10.70;3.00;;;;;;;15.28;100.00;99750.16;4980238;28;21408;-80
2023/08/07 07:47:31;;;;;;;14.05;3.47;;;;;;;15.07;100.00;99747.41;4975912;28;20440;-80
2023/08/07 07:50:07;;;;;;;11.07;2.75;;;;;;;15.13;100.00;99753.50;4975533;28;20447;-81
2023/08/07 07:52:35;;;;;;;10.82;2.90;;;;;;;15.08;100.00;99768.22;4975840;28;20424;-80
2023/08/07 07:55:05;;;;;;;12.15;3.88;;;;;;;15.17;100.00;99768.13;4977181;28;20428;-82
2023/08/07 07:57:38;;;;;;;18.53;3.60;;;;;;;15.36;100.00;99775.91;4977136;28;20428;-80
2023/08/07 08:00:10;;;;;;;12.75;3.33;;;;;;;15.21;100.00;99780.03;5009190;28;20454;-81
2023/08/07 08:02:42;;;;;;;15.82;4.00;;;;;;;15.21;100.00;99774.56;4971150;28;20444;-80
2023/08/07 08:05:16;;;;;;;19.02;4.50;;;;;;;15.23;100.00;99776.97;4975902;28;20425;-80
2023/08/07 08:07:44;;;;;;;13.05;4.32;;;;;;;14.98;100.00;99785.00;4973160;28;20432;-80
2023/08/07 08:10:13;;;;;;;16.10;3.65;;;;;;;14.90;100.00;99792.16;4970076;28;20447;-82
2023/08/07 08:12:46;;;;;;;14.05;3.58;;;;;;;14.95;100.00;99800.19;4981804;28;20420;-80
2023/08/07 08:15:21;;;;;;;13.73;3.50;;;;;;;15.06;100.00;99794.34;4984187;28;21103;-80
2023/08/07 08:17:55;;;;;;;15.65;3.58;;;;;;;15.26;100.00;99799.03;4981527;28;20483;-80
2023/08/07 08:20:29;;;;;;;13.52;3.25;;;;;;;15.22;100.00;99795.34;4978906;28;20437;-81
2023/08/07 08:23:03;;;;;;;12.20;3.25;;;;;;;15.32;100.00;99804.34;4983531;28;20444;-80
2023/08/07 08:25:36;;;;;;;15.77;3.67;;;;;;;15.27;100.00;99781.47;4976709;28;20429;-79
2023/08/07 08:28:04;;;;;;;17.27;4.88;;;;;;;15.28;100.00;99795.97;4979453;28;20443;-79
2023/08/07 08:30:38;;;;;;;12.13;2.97;;;;;;;15.25;100.00;99797.44;4982102;28;20432;-81
2023/08/07 08:33:09;;;;;;;13.32;3.00;;;;;;;15.30;100.00;99813.69;4977312;28;22272;-81
2023/08/07 08:35:42;;;;;;;13.85;3.13;;;;;;;14.96;100.00;99809.22;4998331;28;21702;-80
2023/08/07 08:38:16;;;;;;;13.85;3.15;;;;;;;14.74;100.00;99811.09;4978682;28;20441;-81
2023/08/07 08:40:53;;;;;;;14.45;3.10;;;;;;;14.88;100.00;99821.03;4975370;28;20424;-80
2023/08/07 08:43:27;;;;;;;10.50;3.03;;;;;;;14.68;100.00;99828.03;4970685;28;20432;-80
2023/08/07 08:46:02;;;;;;;14.63;3.75;;;;;;;14.65;100.00;99823.22;4976690;28;20964;-81
2023/08/07 08:48:39;;;;;;;16.15;5.07;;;;;;;14.71;100.00;99830.94;4983551;28;20443;-80
2023/08/07 08:51:13;;;;;;;11.50;3.40;;;;;;;14.93;100.00;99824.38;4981321;28;20439;-81
2023/08/07 08:53:49;;;;;;;10.65;2.97;;;;;;;14.92;100.00;99833.72;4979151;28;20441;-81
2023/08/07 08:56:22;;;;;;;11.37;2.70;;;;;;;14.98;100.00;99828.06;4978260;28;20428;-80
2023/08/07 08:58:56;;;;;;;22.63;8.48;;;;;;;15.25;100.00;99830.31;4975135;28;20425;-79
2023/08/07 09:01:31;;;;;;;11.90;2.72;;;;;;;15.26;100.00;99822.88;4982993;28;20440;-81
2023/08/07 09:04:06;;;;;;;11.70;2.97;;;;;;;15.38;100.00;99820.22;4976509;28;20796;-81
2023/08/07 09:06:40;;;;;;;12.88;2.67;;;;;;;15.20;100.00;99826.97;4984163;28;20432;-83
2023/08/07 09:09:09;;;;;;;11.73;2.80;;;;;;;15.31;100.00;99828.19;4980141;28;20491;-81
2023/08/07 09:11:44;;;;;;;12.43;3.03;;;;;;;15.52;100.00;99816.44;4977924;28;20500;-81
2023/08/07 09:14:16;;;;;;;9.65;2.75;;;;;;;15.62;100.00;99821.53;4980567;28;20440;-82
2023/08/07 09:16:46;;;;;;;12.52;3.45;;;;;;;15.67;100.00;99815.81;4977245;28;20436;-83
2023/08/07 09:19:21;;;;;;;12.63;2.87;;;;;;;15.62;100.00;99827.81;4978005;28;21198;-81
2023/08/07 09:21:49;;;;;;;13.40;2.60;;;;;;;15.64;100.00;99819.25;4984804;28;20425;-81
2023/08/07 09:24:18;;;;;;;12.63;3.00;;;;;;;15.75;100.00;99820.44;4983020;28;21082;-81
2023/08/07 09:26:52;;;;;;;13.60;2.97;;;;;;;15.73;100.00;99835.63;4989916;28;20435;-81
2023/08/07 09:29:21;;;;;;;16.33;2.83;;;;;;;15.75;100.00;99825.91;4990312;28;20447;-82
2023/08/07 09:31:55;;;;;;;19.13;3.22;;;;;;;15.87;100.00;99830.69;4968637;28;20440;-81
2023/08/07 09:34:31;;;;;;;15.50;3.20;;;;;;;15.87;100.00;99833.44;4977175;28;20440;-84
2023/08/07 09:37:05;;;;;;;15.23;3.05;;;;;;;15.86;100.00;99831.03;4979072;28;20436;-80
2023/08/07 09:39:35;;;;;;;13.38;3.05;;;;;;;15.78;100.00;99849.13;4976964;28;20496;-83
2023/08/07 09:42:14;;;;;;;12.15;2.78;;;;;;;15.76;100.00;99843.19;4969278;28;20848;-81
2023/08/07 09:44:48;;;;;;;15.05;3.20;;;;;;;15.87;100.00;99843.59;4976125;28;21149;-83
2023/08/07 09:47:21;;;;;;;16.80;3.28;;;;;;;15.87;100.00;99836.19;4979100;28;20455;-82
2023/08/07 09:49:57;;;;;;;15.70;3.30;;;;;;;15.74;100.00;99845.47;4980773;28;20429;-81
2023/08/07 09:52:31;;;;;;;12.50;2.88;;;;;;;15.37;100.00;99840.56;4977416;28;20421;-80
2023/08/07 09:54:59;;;;;;;12.63;3.17;;;;;;;15.20;100.00;99852.44;4978747;28;20432;-81
2023/08/07 09:57:28;;;;;;;17.37;3.10;;;;;;;14.97;100.00;99862.88;4977799;28;20429;-80
2023/08/07 10:00:01;;;;;;;14.85;3.08;;;;;;;15.08;100.00;99879.72;4983281;28;20428;-80
2023/08/07 10:02:40;;;;;;;15.07;3.15;;;;;;;14.74;100.00;99870.53;4979028;28;20435;-80
2023/08/07 10:05:15;;;;;;;10.60;2.47;;;;;;;14.63;100.00;99878.31;4968700;28;20429;-81
2023/08/07 10:07:49;;;;;;;10.57;2.90;;;;;;;14.59;100.00;99878.13;4978198;28;20416;-81
2023/08/07 10:10:22;;;;;;;13.03;2.90;;;;;;;14.60;100.00;99874.25;4974947;28;20467;-82
2023/08/07 10:12:56;;;;;;;12.20;3.00;;;;;;;14.86;100.00;99864.38;4971902;28;21036;-81
2023/08/07 10:15:30;;;;;;;13.15;2.88;;;;;;;14.86;100.00;99873.41;4972426;28;20443;-79
2023/08/07 10:18:04;;;;;;;13.43;2.65;;;;;;;15.49;100.00;99861.78;4969186;28;20442;-80
2023/08/07 10:20:42;;;;;;;14.60;2.85;;;;;;;15.57;100.00;99865.59;4982472;28;20440;-80
2023/08/07 10:23:12;;;;;;;14.23;3.45;;;;;;;15.91;100.00;99855.50;4976574;28;20428;-81
2023/08/07 10:25:48;;;;;;;12.93;2.78;;;;;;;16.11;100.00;99838.22;4972888;28;20433;-79
2023/08/07 10:28:20;;;;;;;13.18;2.70;;;;;;;16.25;100.00;99851.63;4978577;28;20432;-79
2023/08/07 10:30:54;;;;;;;13.87;3.43;;;;;;;16.49;100.00;99855.63;4973340;28;21256;-81
2023/08/07 10:33:28;;;;;;;12.73;2.55;;;;;;;16.40;100.00;99843.91;4971328;28;20442;-80
2023/08/07 10:35:59;;;;;;;13.30;2.92;;;;;;;16.40;100.00;99852.16;4973305;28;20436;-80
2023/08/07 10:38:32;;;;;;;16.07;3.67;;;;;;;16.11;100.00;99846.44;4974356;28;20436;-80
2023/08/07 10:41:08;;;;;;;13.13;2.67;;;;;;;15.90;100.00;99842.94;4975598;28;20468;-81
2023/08/07 10:43:43;;;;;;;13.40;2.70;;;;;;;15.92;100.00;99860.69;4973064;28;20433;-81
2023/08/07 10:46:20;;;;;;;12.43;2.50;;;;;;;15.93;100.00;99845.00;4967419;28;21525;-80
2023/08/07 10:48:57;;;;;;;13.35;2.50;;;;;;;16.04;100.00;99850.88;4967176;28;20515;-79
2023/08/07 10:51:32;;;;;;;12.55;2.65;;;;;;;16.09;100.00;99867.94;4971925;28;20443;-79
2023/08/07 10:54:05;;;;;;;11.13;2.30;;;;;;;16.12;100.00;99850.81;4977641;28;20436;-80
2023/08/07 10:56:39;;;;;;;11.20;2.43;;;;;;;16.31;100.00;99847.56;4973447;28;20853;-79
2023/08/07 10:59:13;;;;;;;10.57;2.63;;;;;;;16.56;100.00;99844.03;4973768;28;20434;-80
2023/08/07 11:01:52;;;;;;;11.63;2.60;;;;;;;16.42;100.00;99849.84;4979502;28;21183;-80
2023/08/07 11:04:20;;;;;;;10.38;2.55;;;;;;;16.51;100.00;99847.03;4976532;28;20797;-80
2023/08/07 11:06:56;;;;;;;11.60;2.35;;;;;;;16.71;100.00;99859.06;4978568;28;20432;-79
2023/08/07 11:09:24;;;;;;;9.75;2.55;;;;;;;16.54;100.00;99863.63;4970338;28;20437;-81
2023/08/07 11:11:57;;;;;;;13.68;2.70;;;;;;;16.31;100.00;99868.72;4969920;28;20428;-80
2023/08/07 11:14:25;;;;;;;12.15;2.60;;;;;;;16.28;100.00;99858.41;4969773;28;21102;-79
2023/08/07 11:16:59;;;;;;;15.10;2.60;;;;;;;16.26;100.00;99850.50;4969338;28;20455;-81
2023/08/07 11:19:32;;;;;;;10.82;2.50;;;;;;;16.19;100.00;99858.50;4972481;28;21802;-82
2023/08/07 11:22:07;;;;;;;14.00;5.70;;;;;;;16.47;100.00;99864.19;4974465;28;20442;-79
2023/08/07 11:24:40;;;;;;;15.45;4.07;;;;;;;16.51;100.00;99858.81;4975054;28;20432;-82
2023/08/07 11:27:13;;;;;;;13.57;3.05;;;;;;;16.61;100.00;99865.81;4974116;28;20436;-80
2023/08/07 11:29:49;;;;;;;12.57;2.33;;;;;;;16.48;100.00;99865.78;4972560;28;20440;-80
2023/08/07 11:32:22;;;;;;;9.87;2.50;;;;;;;16.51;100.00;99869.78;4978045;28;20440;-80
2023/08/07 11:34:51;;;;;;;10.45;2.30;;;;;;;16.56;100.00;99875.06;4974404;28;20452;-80
2023/08/07 11:37:28;;;;;;;12.40;2.73;;;;;;;17.11;100.00;99873.00;4972298;28;20429;-80
2023/08/07 11:40:01;;;;;;;12.07;2.50;;;;;;;17.30;100.00;99861.41;4969878;28;21612;-79
2023/08/07 11:42:34;;;;;;;9.53;2.33;;;;;;;17.62;100.00;99866.28;4972171;28;21019;-83
2023/08/07 11:45:04;;;;;;;16.67;6.03;;;;;;;17.63;100.00;99857.66;4976912;28;20448;-82
2023/08/07 11:47:37;;;;;;;9.93;2.67;;;;;;;17.31;100.00;99859.47;4975395;28;20445;-81